KMTH/MTH METAR and TAF weather

Enter ICAO airport designator
Station Type Date Time Source
KMTH METAR 2021/10/24 20:53 UTC NOAA

KMTH 242053Z AUTO VRB03KT 10SM CLR 29/24 A2994 RMK AO2 SLP139 T02940244 56012


Station Type Date Time Source
KMTH Decoded METAR 2021/10/24 20:53 UTC NOAA

MARATHON AIRPORT, FL, United States (KMTH) 24-44N 81-03W 2M
Oct 24, 2021 - 04:53 PM EDT / 2021.10.24 2053 UTC
Wind: Variable at 3 MPH (3 KT):0
Visibility: 10 mile(s):0
Sky conditions: clear
Temperature: 84.9 F (29.4 C)
Dew Point: 75.9 F (24.4 C)
Relative Humidity: 74%
Pressure (altimeter): 29.94 in. Hg (1013 hPa)
Pressure tendency: 0.04 inches (1.2 hPa) lower than three hours ago
ob: KMTH 242053Z AUTO VRB03KT 10SM CLR 29/24 A2994 RMK AO2 SLP139 T02940244 56012
cycle: 21

Station Type Date Time Source
KMTH TAF 2021/10/24 18:34 UTC NOAA

TAF KMTH 241732Z 2418/2518 13005KT P6SM VCSH FEW020 BKN150
FM250200 VRB04KT P6SM FEW020 OVC050

Example: see airport list